createdAt,value
2022-10-06T00:02:54.938Z,54.40
2022-10-06T00:08:10.426Z,54.30
2022-10-06T00:13:25.787Z,54.20
2022-10-06T00:18:40.790Z,54.00
2022-10-06T00:23:55.814Z,53.80
2022-10-06T00:29:10.811Z,53.80
2022-10-06T00:34:25.810Z,54.00
2022-10-06T00:39:40.802Z,54.00
2022-10-06T00:44:56.144Z,53.70
2022-10-06T00:50:11.801Z,53.40
2022-10-06T00:55:26.818Z,53.30
2022-10-06T01:00:42.113Z,53.60
2022-10-06T01:05:57.821Z,53.10
2022-10-06T01:11:12.887Z,52.90
2022-10-06T01:16:28.134Z,52.80
2022-10-06T01:21:44.197Z,52.70
2022-10-06T01:26:59.794Z,52.60
2022-10-06T01:32:14.805Z,52.40
2022-10-06T01:37:29.868Z,52.20
2022-10-06T01:42:45.786Z,52.10
2022-10-06T01:48:01.090Z,52.00
2022-10-06T01:53:16.824Z,52.00
2022-10-06T01:58:32.129Z,52.00
2022-10-06T02:03:49.131Z,52.00
2022-10-06T02:09:05.118Z,51.90
2022-10-06T02:14:21.571Z,51.80
2022-10-06T02:19:36.824Z,51.80
2022-10-06T02:24:52.100Z,51.70
2022-10-06T02:30:07.846Z,51.80
2022-10-06T02:35:23.814Z,52.00
2022-10-06T02:40:38.872Z,51.90
2022-10-06T02:45:53.785Z,51.80
2022-10-06T02:51:08.556Z,51.60
2022-10-06T02:56:24.849Z,51.50
2022-10-06T03:01:39.919Z,51.60
2022-10-06T03:06:58.831Z,51.50
2022-10-06T03:12:19.107Z,51.40
2022-10-06T03:17:34.840Z,51.40
2022-10-06T03:22:49.807Z,51.40
2022-10-06T03:28:04.919Z,51.90
2022-10-06T03:33:21.130Z,51.40
2022-10-06T03:38:37.188Z,51.50
2022-10-06T03:43:52.887Z,51.20
2022-10-06T03:49:08.819Z,50.80
2022-10-06T03:54:24.151Z,50.40
2022-10-06T03:59:40.130Z,50.20
2022-10-06T04:04:56.808Z,50.10
2022-10-06T04:10:12.163Z,49.80
2022-10-06T04:15:29.190Z,49.80
2022-10-06T04:20:44.903Z,49.80
2022-10-06T04:25:59.863Z,49.70
2022-10-06T04:31:15.190Z,49.70
2022-10-06T04:36:30.849Z,49.70
2022-10-06T04:41:46.185Z,49.60
2022-10-06T04:47:09.195Z,49.50
2022-10-06T04:52:25.159Z,49.40
2022-10-06T04:57:40.930Z,49.40
2022-10-06T05:02:55.891Z,49.30
2022-10-06T05:08:10.905Z,49.20
2022-10-06T05:13:26.145Z,49.20
2022-10-06T05:18:42.841Z,49.20
2022-10-06T05:23:58.206Z,49.00
2022-10-06T05:29:14.849Z,49.00
2022-10-06T05:34:29.886Z,49.00
2022-10-06T05:39:45.119Z,48.70
2022-10-06T05:45:00.873Z,48.70
2022-10-06T05:50:16.111Z,48.70
2022-10-06T05:55:32.553Z,48.60
2022-10-06T06:00:47.820Z,48.90
2022-10-06T06:06:02.871Z,48.80
2022-10-06T06:11:18.185Z,48.70
2022-10-06T06:16:33.893Z,48.70
2022-10-06T06:21:48.617Z,48.70
2022-10-06T06:27:04.157Z,48.50
2022-10-06T06:32:21.826Z,48.60
2022-10-06T06:37:37.847Z,48.50
2022-10-06T06:42:54.032Z,48.40
2022-10-06T06:48:22.152Z,48.50
2022-10-06T06:53:38.107Z,48.50
2022-10-06T06:58:53.900Z,48.70
2022-10-06T07:04:09.152Z,48.70
2022-10-06T07:09:24.856Z,48.90
2022-10-06T07:14:46.839Z,48.80
2022-10-06T07:20:01.851Z,48.90
2022-10-06T07:25:21.639Z,49.00
2022-10-06T07:30:45.188Z,48.90
2022-10-06T07:36:03.186Z,48.90
2022-10-06T07:41:20.601Z,49.00
2022-10-06T07:46:39.846Z,49.00
2022-10-06T07:51:58.817Z,49.00
2022-10-06T07:57:13.866Z,49.00
2022-10-06T08:02:30.330Z,48.90
2022-10-06T08:07:49.184Z,48.90
2022-10-06T08:13:04.857Z,49.00
2022-10-06T08:18:40.957Z,49.00
2022-10-06T08:23:54.847Z,49.00
2022-10-06T08:29:09.885Z,49.10
2022-10-06T08:34:24.862Z,49.10
2022-10-06T08:39:39.842Z,49.10
2022-10-06T08:44:55.069Z,49.20
2022-10-06T08:50:11.172Z,49.20
2022-10-06T08:55:26.833Z,49.10
2022-10-06T09:00:42.178Z,49.10
2022-10-06T09:05:57.843Z,49.10
2022-10-06T09:11:12.845Z,49.20
2022-10-06T09:16:27.935Z,49.10
2022-10-06T09:21:42.860Z,49.20
2022-10-06T09:26:57.886Z,49.50
2022-10-06T09:32:12.932Z,49.60
2022-10-06T09:37:28.169Z,49.50
2022-10-06T09:42:43.657Z,49.70
2022-10-06T09:47:58.838Z,49.30
2022-10-06T09:53:13.912Z,49.50
2022-10-06T09:58:28.743Z,49.70
2022-10-06T10:03:51.511Z,49.70
2022-10-06T10:09:20.656Z,49.60
2022-10-06T10:14:36.889Z,49.70
2022-10-06T10:19:51.898Z,49.30
2022-10-06T10:25:06.930Z,49.60
2022-10-06T10:30:22.268Z,49.60
2022-10-06T10:35:37.855Z,49.80
2022-10-06T10:40:52.849Z,50.20
2022-10-06T10:46:07.891Z,50.20
2022-10-06T10:51:23.208Z,50.10
2022-10-06T10:56:39.138Z,50.20
2022-10-06T11:01:54.878Z,50.30
2022-10-06T11:07:09.896Z,50.20
2022-10-06T11:12:24.922Z,50.00
2022-10-06T11:17:39.887Z,50.10
2022-10-06T11:22:54.843Z,50.10
2022-10-06T11:28:09.896Z,50.00
2022-10-06T11:33:24.869Z,50.00
2022-10-06T11:38:39.881Z,50.00
2022-10-06T11:43:54.909Z,50.20
2022-10-06T11:49:09.865Z,50.10
2022-10-06T11:54:25.078Z,50.20
2022-10-06T11:59:41.121Z,50.20
2022-10-06T12:04:57.490Z,50.30
2022-10-06T12:10:13.157Z,50.40
2022-10-06T12:21:04.876Z,50.40
2022-10-06T12:26:19.837Z,50.40
2022-10-06T12:31:34.898Z,50.40
2022-10-06T12:36:49.859Z,50.30
2022-10-06T12:42:04.889Z,50.30
2022-10-06T12:47:19.885Z,50.10
2022-10-06T12:52:35.200Z,50.20
2022-10-06T12:57:50.931Z,50.10
2022-10-06T13:03:05.955Z,50.10
2022-10-06T13:08:20.941Z,50.10
2022-10-06T13:13:35.874Z,50.10
2022-10-06T13:18:51.177Z,50.70
2022-10-06T13:24:06.637Z,50.30
2022-10-06T13:29:21.853Z,50.40
2022-10-06T13:34:37.263Z,50.40
2022-10-06T13:39:53.086Z,50.40
2022-10-06T13:45:08.187Z,50.40
2022-10-06T13:50:23.903Z,50.30
2022-10-06T13:55:39.271Z,50.30
2022-10-06T14:00:54.924Z,50.30
2022-10-06T14:06:10.171Z,50.50
2022-10-06T14:11:25.908Z,50.60
2022-10-06T14:16:40.631Z,50.50
2022-10-06T14:21:55.927Z,50.50
2022-10-06T14:27:10.954Z,50.60
2022-10-06T14:32:25.639Z,50.30
2022-10-06T14:37:40.875Z,50.20
2022-10-06T14:42:55.859Z,50.30
2022-10-06T14:48:11.145Z,50.30
2022-10-06T14:53:26.639Z,50.20
2022-10-06T14:58:41.886Z,50.10
2022-10-06T15:03:56.923Z,50.30
2022-10-06T15:09:12.117Z,50.10
2022-10-06T15:14:28.132Z,50.10
2022-10-06T15:19:44.861Z,50.20
2022-10-06T15:24:59.862Z,50.10
2022-10-06T15:30:14.882Z,50.10
2022-10-06T15:35:29.904Z,50.20
2022-10-06T15:40:44.632Z,50.30
2022-10-06T15:45:59.857Z,50.40
2022-10-06T15:51:14.897Z,50.40
2022-10-06T15:56:29.880Z,50.20
2022-10-06T16:01:44.991Z,50.20
2022-10-06T16:07:00.897Z,50.10
2022-10-06T16:12:16.201Z,50.20
2022-10-06T16:17:32.934Z,50.20
2022-10-06T16:22:47.910Z,50.50
2022-10-06T16:28:02.926Z,50.80
2022-10-06T16:33:17.882Z,51.10
2022-10-06T16:38:33.136Z,51.20
2022-10-06T16:43:48.874Z,51.10
2022-10-06T16:49:04.266Z,51.20
2022-10-06T16:54:19.866Z,51.10
2022-10-06T16:59:35.202Z,51.20
2022-10-06T17:04:51.265Z,51.10
2022-10-06T17:10:21.432Z,50.80
2022-10-06T17:15:37.271Z,50.90
2022-10-06T17:20:54.197Z,50.80
2022-10-06T17:26:11.225Z,50.40
2022-10-06T17:31:26.937Z,50.10
2022-10-06T17:36:41.885Z,50.00
2022-10-06T17:41:57.220Z,49.90
2022-10-06T17:47:12.907Z,49.90
2022-10-06T17:52:27.871Z,49.70
2022-10-06T17:57:42.908Z,49.50
2022-10-06T18:02:57.912Z,49.50
2022-10-06T18:08:13.192Z,49.10
2022-10-06T18:13:28.919Z,49.10
2022-10-06T18:18:43.903Z,49.20
2022-10-06T18:23:58.908Z,49.10
2022-10-06T18:29:13.929Z,49.00
2022-10-06T18:40:03.897Z,48.70
2022-10-06T18:45:18.911Z,48.60
2022-10-06T18:50:33.869Z,48.40
2022-10-06T18:55:48.901Z,48.50
2022-10-06T19:01:04.348Z,50.10
2022-10-06T19:06:19.890Z,51.60
2022-10-06T19:11:34.876Z,52.00
2022-10-06T19:16:50.226Z,52.00
2022-10-06T19:22:05.899Z,52.00
2022-10-06T19:27:20.814Z,51.90
2022-10-06T19:32:35.945Z,51.70
2022-10-06T19:37:51.209Z,51.70
2022-10-06T19:43:06.905Z,51.40
2022-10-06T19:48:21.923Z,51.10
2022-10-06T19:53:36.890Z,51.00
2022-10-06T19:58:51.889Z,50.70
2022-10-06T20:04:06.853Z,50.70
2022-10-06T20:09:21.894Z,51.00
2022-10-06T20:14:36.892Z,50.60
2022-10-06T20:19:56.718Z,50.70
2022-10-06T20:25:12.897Z,50.30
2022-10-06T20:30:27.900Z,50.10
2022-10-06T20:35:43.204Z,49.90
2022-10-06T20:40:58.949Z,49.80
2022-10-06T20:46:13.988Z,49.80
2022-10-06T20:51:28.918Z,49.80
2022-10-06T20:56:43.937Z,49.90
2022-10-06T21:02:00.085Z,49.60
2022-10-06T21:07:16.261Z,49.70
2022-10-06T21:12:31.881Z,49.50
2022-10-06T21:17:47.157Z,49.20
2022-10-06T21:23:02.885Z,49.20
2022-10-06T21:28:17.947Z,49.10
2022-10-06T21:33:32.872Z,49.00
2022-10-06T21:38:47.882Z,48.90
2022-10-06T21:44:02.944Z,48.60
2022-10-06T21:49:18.217Z,49.00
2022-10-06T21:54:34.111Z,49.10
2022-10-06T21:59:49.923Z,49.20
2022-10-06T22:05:04.969Z,49.10
2022-10-06T22:10:19.881Z,49.10
2022-10-06T22:15:34.930Z,49.00
2022-10-06T22:20:49.932Z,49.00
2022-10-06T22:26:05.186Z,49.00
2022-10-06T22:31:25.613Z,49.00
2022-10-06T22:36:40.886Z,49.10
2022-10-06T22:41:56.194Z,48.60
2022-10-06T22:47:11.907Z,48.40
2022-10-06T22:52:26.868Z,48.20
2022-10-06T22:57:42.179Z,48.10
2022-10-06T23:02:58.218Z,47.90
2022-10-06T23:08:14.207Z,47.90
2022-10-06T23:13:29.913Z,48.00
2022-10-06T23:18:45.884Z,47.70
2022-10-06T23:24:00.879Z,47.60
2022-10-06T23:29:16.199Z,47.70
2022-10-06T23:34:32.223Z,47.70
2022-10-06T23:39:48.196Z,48.10
2022-10-06T23:45:03.960Z,47.30
2022-10-06T23:50:18.931Z,47.40
2022-10-06T23:55:33.925Z,47.20
